Casper-Natrona County International Airport
KCPR : now visible

Airfield :











YOU CAN JOIN US ON...

 
LOGIN :

Register | Disclaimer

   EN    FR    IT 

 









Legend :    VFR   Marginal VFR   IFR   Intensive IFR   Very Intensive IFR
Visi :
Ceiling :
>= 8 km
>= 3000ft
5 to 8 km
1000 to 3000 ft
1500m to 5 km
500 to 1000 ft
800 to 1500m
200 to 500 ft
< 800m
< 200 ft
Symbols :   Thunderstorms  Fog  Heavy snow  Heavy precipitations  Wind > 20 kt






- Airport Elevation : 5350 ft
- IATA code : CPR


KCPR - Casper-Natrona County International

CURRENT METAR :
  • 121653Z VRB05KT 10SM FEW055 13/M03 A3021 RMK AO2 SLP214 T01281033

EXPIRED METARs :
  • 121553Z 30007KT 10SM CLR 11/M01 A3022 RMK AO2 SLP220 T01111006
  • 121453Z 25009KT 10SM CLR 09/01 A3022 RMK AO2 SLP223 T00890006 51007

TAF KCPR
Valid from the 12 at 12:00 until the 13 at 12:00 UTC


121120Z 1212/1312 22005KT P6SM BKN100
FM121500 24010KT P6SM SKC
FM121900 29011G18KT P6SM SCT100
FM130000 VRB06KT P6SM FEW100 SCT150
KZDV FIR / North America



MET'MAP, your aeronautical weather chart ! - Copyright ORBIFLY December 2007 - Disclaimer

ORBIFLY MET'MAP TEAM :

Programming & Development : Alexandra Zaïnal
Concept & original design : Baudouin d'Aumeries
Assistance for programming : Marc-Olivier Méhu
Technical & hardware support : Manuel Goepfert

Contact : metmap@orbifly.com




SOURCES & CREDITS :

   NOAA       Earth
Advisory